Terminal Aerodrome Forecast
Issued by NWS

Home | Current Version | Previous Version | Text Only | Print | Product List | Glossary On
Versions: 1 2 3 4 5 6 7 8 9 10 11 12 13 14 15 16 17
000
FTUS46 KPQR 231123
TAFONP
TAF
KONP 231123Z 2312/2412 08003KT P6SM SKC
     FM231700 36015G25KT P6SM SKC
     FM232100 34022G32KT P6SM SKC
     FM240400 36008G16KT P6SM SKC
     FM240800 04005KT P6SM SKC=

USA.gov is the U.S. government's official web portal to all federal, state and local government web resources and services.